createdAt,value
2022-08-08T00:00:54.008Z,89.35
2022-08-08T00:01:08.495Z,89.30
2022-08-08T00:02:31.522Z,89.28
2022-08-08T00:03:20.305Z,89.24
2022-08-08T00:04:16.337Z,89.24
2022-08-08T00:05:18.989Z,89.22
2022-08-08T00:06:28.486Z,89.12
2022-08-08T00:07:28.465Z,89.08
2022-08-08T00:08:32.126Z,89.11
2022-08-08T00:09:36.511Z,89.04
2022-08-08T00:10:40.926Z,89.06
2022-08-08T00:11:46.458Z,89.06
2022-08-08T00:12:56.775Z,88.86
2022-08-08T00:14:17.314Z,88.75
2022-08-08T00:15:00.262Z,88.69
2022-08-08T00:16:02.810Z,88.76
2022-08-08T00:17:23.297Z,88.90
2022-08-08T00:18:11.561Z,89.08
2022-08-08T00:19:16.009Z,89.29
2022-08-08T00:20:20.357Z,89.65
2022-08-08T00:21:24.742Z,90.12
2022-08-08T00:22:30.204Z,90.55
2022-08-08T00:23:43.069Z,90.76
2022-08-08T00:24:38.030Z,90.77
2022-08-08T00:25:46.188Z,90.78
2022-08-08T00:26:46.625Z,91.09
2022-08-08T00:27:51.115Z,91.29
2022-08-08T00:28:55.451Z,91.72
2022-08-08T00:29:59.904Z,91.83
2022-08-08T00:32:28.338Z,91.98
2022-08-08T00:32:29.172Z,91.87
2022-08-08T00:33:13.065Z,92.12
2022-08-08T00:34:19.790Z,92.14
2022-08-08T00:35:21.859Z,91.96
2022-08-08T00:36:26.214Z,91.80
2022-08-08T00:37:48.345Z,91.70
2022-08-08T00:38:51.964Z,91.68
2022-08-08T00:41:11.216Z,91.80
2022-08-08T00:41:12.736Z,91.85
2022-08-08T00:42:07.841Z,91.80
2022-08-08T00:42:52.503Z,91.75
2022-08-08T00:43:59.236Z,91.71
2022-08-08T00:45:03.121Z,91.64
2022-08-08T00:46:05.605Z,91.80
2022-08-08T00:47:14.302Z,92.06
2022-08-08T00:48:29.807Z,92.28
2022-08-08T00:49:22.879Z,92.53
2022-08-08T00:50:23.116Z,92.92
2022-08-08T00:51:38.245Z,93.30
2022-08-08T00:52:39.255Z,93.42
2022-08-08T00:53:57.196Z,93.42
2022-08-08T00:54:40.602Z,93.38
2022-08-08T00:55:53.411Z,93.57
2022-08-08T00:56:49.354Z,93.69
2022-08-08T00:57:58.202Z,93.81
2022-08-08T00:58:58.060Z,93.64
2022-08-08T01:00:05.019Z,93.58
2022-08-08T01:01:06.903Z,93.47
2022-08-08T01:03:57.338Z,93.37
2022-08-08T01:03:58.407Z,93.27
2022-08-08T01:04:19.954Z,93.18
2022-08-08T01:05:41.992Z,92.95
2022-08-08T01:06:28.729Z,92.75
2022-08-08T01:07:34.376Z,92.67
2022-08-08T01:08:37.428Z,92.51
2022-08-08T01:09:41.814Z,92.50
2022-08-08T01:10:50.907Z,92.45
2022-08-08T01:11:51.990Z,92.39
2022-08-08T01:12:54.927Z,92.40
2022-08-08T01:13:59.322Z,92.46
2022-08-08T01:15:03.726Z,92.50
2022-08-08T01:16:08.163Z,92.70
2022-08-08T01:17:12.793Z,92.79
2022-08-08T01:18:25.411Z,92.87
2022-08-08T01:19:41.910Z,93.06
2022-08-08T01:20:25.787Z,93.09
2022-08-08T01:22:03.853Z,93.27
2022-08-08T01:22:35.437Z,93.37
2022-08-08T01:24:06.377Z,93.31
2022-08-08T01:24:43.570Z,93.42
2022-08-08T01:25:47.636Z,93.56
2022-08-08T01:26:51.992Z,93.66
2022-08-08T01:28:00.266Z,93.64
2022-08-08T01:29:00.930Z,93.66
2022-08-08T01:30:05.131Z,93.54
2022-08-08T01:31:34.280Z,93.38
2022-08-08T01:32:16.116Z,93.13
2022-08-08T01:33:27.505Z,93.12
2022-08-08T01:34:22.612Z,93.05
2022-08-08T01:35:29.729Z,93.22
2022-08-08T01:36:31.407Z,93.15
2022-08-08T01:37:51.121Z,93.03
2022-08-08T01:38:40.186Z,92.78
2022-08-08T01:39:44.654Z,92.47
2022-08-08T01:40:48.933Z,92.27
2022-08-08T01:41:53.302Z,92.18
2022-08-08T01:42:57.679Z,92.17
2022-08-08T01:44:02.137Z,92.21
2022-08-08T01:45:06.453Z,92.29
2022-08-08T01:46:10.917Z,92.29
2022-08-08T01:48:14.873Z,92.18
2022-08-08T01:48:30.827Z,92.01
2022-08-08T01:49:37.554Z,92.00
2022-08-08T01:50:29.850Z,92.11
2022-08-08T01:52:41.813Z,92.19
2022-08-08T01:54:04.389Z,92.29
2022-08-08T01:55:16.094Z,92.33
2022-08-08T01:55:45.596Z,92.54
2022-08-08T01:56:29.877Z,92.86
2022-08-08T01:56:54.774Z,93.02
2022-08-08T01:58:11.516Z,93.05
2022-08-08T01:59:03.615Z,93.24
2022-08-08T02:00:08.047Z,93.46
2022-08-08T02:01:16.060Z,93.63
2022-08-08T02:02:34.875Z,93.53
2022-08-08T02:03:57.361Z,93.44
2022-08-08T02:04:25.496Z,93.35
2022-08-08T02:05:33.945Z,93.21
2022-08-08T02:06:36.933Z,93.21
2022-08-08T02:07:41.999Z,93.36
2022-08-08T02:08:47.174Z,93.46
2022-08-08T02:10:03.596Z,93.69
2022-08-08T02:10:51.812Z,93.93
2022-08-08T02:11:59.777Z,94.18
2022-08-08T02:13:01.152Z,94.48
2022-08-08T02:14:05.100Z,94.68
2022-08-08T02:15:11.080Z,94.78
2022-08-08T02:16:20.611Z,94.91
2022-08-08T02:17:20.476Z,94.96
2022-08-08T02:18:22.526Z,94.92
2022-08-08T02:19:57.978Z,94.72
2022-08-08T02:20:59.852Z,94.72
2022-08-08T02:21:35.627Z,94.59
2022-08-08T02:22:45.873Z,94.32
2022-08-08T02:23:44.457Z,94.21
2022-08-08T02:24:48.859Z,94.13
2022-08-08T02:25:53.213Z,94.02
2022-08-08T02:26:57.964Z,93.88
2022-08-08T02:28:01.930Z,93.87
2022-08-08T02:29:06.303Z,93.87
2022-08-08T02:30:13.052Z,93.91
2022-08-08T02:31:43.278Z,93.92
2022-08-08T02:32:32.605Z,93.95
2022-08-08T02:33:23.803Z,94.05
2022-08-08T02:34:33.098Z,94.12
2022-08-08T02:35:35.744Z,94.18
2022-08-08T02:36:37.033Z,94.19
2022-08-08T02:37:52.544Z,94.29
2022-08-08T02:38:49.110Z,94.32
2022-08-08T02:39:59.665Z,94.32
2022-08-08T02:40:54.516Z,94.27
2022-08-08T02:42:05.700Z,94.16
2022-08-08T02:44:38.034Z,94.14
2022-08-08T02:44:38.658Z,94.11
2022-08-08T02:45:18.758Z,94.19
2022-08-08T02:46:16.256Z,94.18
2022-08-08T02:47:20.618Z,94.31
2022-08-08T02:48:26.195Z,94.41
2022-08-08T02:49:51.488Z,94.50
2022-08-08T02:50:33.789Z,94.55
2022-08-08T02:51:55.203Z,94.63
2022-08-08T02:52:42.525Z,94.59
2022-08-08T02:53:47.328Z,94.63
2022-08-08T02:54:54.088Z,94.67
2022-08-08T02:55:57.703Z,94.61
2022-08-08T02:57:01.882Z,94.46
2022-08-08T02:58:06.227Z,94.35
2022-08-08T02:59:26.286Z,94.27
2022-08-08T03:00:27.276Z,94.24
2022-08-08T03:01:19.403Z,94.26
2022-08-08T03:02:28.894Z,94.22
2022-08-08T03:05:00.854Z,94.13
2022-08-08T03:05:02.898Z,94.05
2022-08-08T03:05:45.360Z,94.06
2022-08-08T03:06:41.238Z,94.15
2022-08-08T03:07:58.552Z,94.15
2022-08-08T03:08:52.152Z,94.37
2022-08-08T03:09:54.366Z,94.69
2022-08-08T03:10:58.727Z,94.99
2022-08-08T03:12:06.068Z,95.13
2022-08-08T03:13:34.143Z,95.30
2022-08-08T03:16:00.784Z,95.39
2022-08-08T03:16:03.867Z,95.38
2022-08-08T03:16:35.525Z,95.44
2022-08-08T03:17:38.917Z,95.52
2022-08-08T03:18:30.995Z,95.66
2022-08-08T03:19:33.735Z,95.73
2022-08-08T03:20:38.102Z,95.79
2022-08-08T03:21:58.620Z,95.85
2022-08-08T03:22:46.777Z,95.88
2022-08-08T03:23:59.791Z,95.95
2022-08-08T03:24:57.053Z,96.17
2022-08-08T03:25:59.882Z,96.36
2022-08-08T03:27:04.261Z,96.61
2022-08-08T03:28:08.626Z,96.85
2022-08-08T03:29:18.591Z,97.16
2022-08-08T03:30:19.171Z,97.32
2022-08-08T03:31:25.206Z,97.50
2022-08-08T03:32:29.152Z,97.62
2022-08-08T03:33:55.699Z,97.73
2022-08-08T03:34:34.850Z,98.07
2022-08-08T03:35:39.171Z,98.24
2022-08-08T03:36:43.494Z,98.45
2022-08-08T03:38:53.401Z,98.46
2022-08-08T03:38:56.432Z,98.47
2022-08-08T03:40:00.685Z,98.61
2022-08-08T03:41:01.193Z,98.88
2022-08-08T03:42:26.932Z,99.11
2022-08-08T03:43:16.814Z,99.30
2022-08-08T03:44:14.093Z,99.46
2022-08-08T03:46:03.307Z,99.62
2022-08-08T03:46:25.498Z,99.75
2022-08-08T03:47:39.479Z,99.89
2022-08-08T03:49:09.082Z,100.00
2022-08-08T03:49:57.850Z,100.00
2022-08-08T03:50:40.067Z,100.00
2022-08-08T03:51:51.378Z,100.00
2022-08-08T03:52:48.816Z,100.00
2022-08-08T03:53:53.187Z,100.00
2022-08-08T03:55:10.211Z,100.00
2022-08-08T03:56:04.513Z,100.00
2022-08-08T03:58:09.598Z,100.00
2022-08-08T03:58:34.174Z,100.00
2022-08-08T03:59:22.739Z,100.00
2022-08-08T04:00:19.174Z,100.00
2022-08-08T04:01:26.067Z,100.00
2022-08-08T04:02:36.580Z,100.00
2022-08-08T04:03:57.981Z,100.00
2022-08-08T04:04:36.657Z,100.00
2022-08-08T04:05:49.953Z,100.00
2022-08-08T04:06:45.367Z,100.00
2022-08-08T04:07:50.870Z,100.00
2022-08-08T04:08:54.070Z,100.00
2022-08-08T04:10:03.243Z,100.00
2022-08-08T04:11:02.751Z,100.00
2022-08-08T04:12:07.105Z,100.00
2022-08-08T04:13:17.383Z,100.00
2022-08-08T04:14:34.661Z,99.99
2022-08-08T04:15:22.290Z,100.00
2022-08-08T04:16:40.658Z,99.99
2022-08-08T04:17:58.253Z,100.00
2022-08-08T04:18:35.912Z,100.00
2022-08-08T04:19:37.611Z,100.00
2022-08-08T04:20:41.974Z,100.00
2022-08-08T04:21:46.334Z,100.00
2022-08-08T04:22:51.532Z,100.00
2022-08-08T04:24:12.289Z,100.00
2022-08-08T04:24:59.460Z,100.00
2022-08-08T04:26:09.386Z,100.00
2022-08-08T04:27:10.619Z,100.00
2022-08-08T04:28:36.602Z,100.00
2022-08-08T04:29:16.915Z,100.00
2022-08-08T04:30:21.372Z,100.00
2022-08-08T04:31:30.901Z,100.00
2022-08-08T04:32:30.780Z,100.00
2022-08-08T04:33:41.553Z,100.00
2022-08-08T04:34:49.301Z,100.00
2022-08-08T04:35:51.050Z,100.00
2022-08-08T04:36:47.603Z,100.00
2022-08-08T04:37:51.888Z,100.00
2022-08-08T04:39:47.667Z,100.00
2022-08-08T04:40:05.664Z,100.00
2022-08-08T04:41:05.019Z,100.00
2022-08-08T04:42:09.326Z,100.00
2022-08-08T04:43:13.684Z,100.00
2022-08-08T04:44:18.068Z,100.00
2022-08-08T04:45:22.534Z,100.00
2022-08-08T04:46:26.857Z,100.00
2022-08-08T04:47:31.218Z,100.00
2022-08-08T04:48:35.559Z,100.00
2022-08-08T04:50:00.403Z,100.00
2022-08-08T04:50:44.580Z,100.00
2022-08-08T04:51:57.390Z,100.00
2022-08-08T04:53:01.077Z,100.00
2022-08-08T04:54:38.707Z,100.00
2022-08-08T04:55:01.881Z,100.00
2022-08-08T04:56:06.162Z,100.00
2022-08-08T04:57:10.517Z,100.00
2022-08-08T04:58:14.851Z,100.00
2022-08-08T04:59:19.204Z,100.00
2022-08-08T05:00:23.571Z,100.00
2022-08-08T05:01:35.717Z,100.00
2022-08-08T05:02:32.485Z,100.00
2022-08-08T05:04:09.118Z,100.00
2022-08-08T05:04:41.059Z,100.00
2022-08-08T05:05:45.774Z,100.00
2022-08-08T05:06:52.036Z,100.00
2022-08-08T05:07:54.186Z,100.00
2022-08-08T05:09:02.315Z,100.00
2022-08-08T05:10:02.855Z,100.00
2022-08-08T05:11:07.208Z,100.00
2022-08-08T05:12:20.390Z,100.00
2022-08-08T05:13:17.997Z,100.00
2022-08-08T05:14:20.649Z,100.00
2022-08-08T05:15:24.640Z,100.00
2022-08-08T05:16:52.130Z,100.00
2022-08-08T05:17:53.430Z,100.00
2022-08-08T05:18:37.705Z,100.00
2022-08-08T05:20:09.993Z,100.00
2022-08-08T05:20:49.904Z,100.00
2022-08-08T05:21:58.014Z,100.00
2022-08-08T05:22:55.219Z,100.00
2022-08-08T05:24:04.285Z,100.00
2022-08-08T05:25:03.910Z,100.00
2022-08-08T05:26:08.236Z,100.00
2022-08-08T05:27:12.619Z,100.00
2022-08-08T05:28:41.494Z,100.00
2022-08-08T05:29:21.429Z,100.00
2022-08-08T05:30:28.521Z,100.00
2022-08-08T05:32:03.576Z,100.00
2022-08-08T05:32:36.593Z,100.00
2022-08-08T05:33:44.251Z,100.00
2022-08-08T05:34:43.462Z,100.00
2022-08-08T05:35:47.536Z,100.00
2022-08-08T05:36:51.897Z,100.00
2022-08-08T05:37:56.239Z,100.00
2022-08-08T05:39:00.637Z,100.00
2022-08-08T05:40:04.972Z,100.00
2022-08-08T05:41:09.330Z,100.00
2022-08-08T05:42:13.734Z,100.00
2022-08-08T05:43:39.920Z,100.00
2022-08-08T05:44:30.959Z,100.00
2022-08-08T05:45:31.448Z,100.00
2022-08-08T05:46:31.193Z,100.00
2022-08-08T05:47:41.675Z,100.00
2022-08-08T05:48:41.731Z,100.00
2022-08-08T05:49:54.186Z,100.00
2022-08-08T05:50:48.755Z,100.00
2022-08-08T05:51:54.062Z,100.00
2022-08-08T05:52:57.487Z,100.00
2022-08-08T05:54:27.261Z,100.00
2022-08-08T05:55:09.941Z,100.00
2022-08-08T05:56:15.189Z,100.00
2022-08-08T05:57:15.333Z,100.00
2022-08-08T05:58:20.373Z,100.00
2022-08-08T05:59:59.975Z,100.00
2022-08-08T06:00:28.269Z,100.00
2022-08-08T06:01:55.646Z,100.00
2022-08-08T06:02:36.918Z,100.00
2022-08-08T06:03:42.090Z,100.00
2022-08-08T06:04:47.725Z,100.00
2022-08-08T06:05:51.704Z,100.00
2022-08-08T06:06:56.629Z,100.00
2022-08-08T06:08:02.717Z,100.00
2022-08-08T06:09:57.952Z,100.00
2022-08-08T06:10:07.497Z,100.00
2022-08-08T06:11:13.357Z,100.00
2022-08-08T06:12:18.413Z,100.00
2022-08-08T06:13:22.723Z,100.00
2022-08-08T06:14:25.079Z,100.00
2022-08-08T06:15:50.224Z,100.00
2022-08-08T06:16:33.880Z,100.00
2022-08-08T06:17:51.157Z,100.00
2022-08-08T06:18:42.791Z,100.00
2022-08-08T06:19:47.038Z,100.00
2022-08-08T06:20:51.423Z,100.00
2022-08-08T06:21:57.341Z,100.00
2022-08-08T06:23:00.233Z,100.00
2022-08-08T06:24:13.574Z,100.00
2022-08-08T06:25:08.953Z,100.00
2022-08-08T06:26:44.527Z,100.00
2022-08-08T06:27:17.596Z,100.00
2022-08-08T06:28:29.439Z,100.00
2022-08-08T06:29:59.593Z,100.00
2022-08-08T06:30:30.830Z,100.00
2022-08-08T06:31:52.962Z,100.00
2022-08-08T06:32:39.638Z,100.00
2022-08-08T06:34:26.919Z,100.00
2022-08-08T06:34:56.333Z,99.57
2022-08-08T06:36:07.312Z,99.17
2022-08-08T06:36:57.334Z,98.93
2022-08-08T06:38:01.749Z,98.53
2022-08-08T06:39:06.057Z,97.98
2022-08-08T06:40:10.463Z,97.63
2022-08-08T06:41:15.467Z,97.36
2022-08-08T06:42:19.228Z,96.71
2022-08-08T06:43:28.839Z,96.19
2022-08-08T06:44:29.139Z,95.77
2022-08-08T06:45:32.477Z,95.42
2022-08-08T06:46:36.765Z,95.36
2022-08-08T06:47:52.379Z,94.89
2022-08-08T06:48:45.927Z,95.01
2022-08-08T06:49:56.308Z,95.28
2022-08-08T06:50:54.434Z,95.28
2022-08-08T06:51:58.836Z,95.11
2022-08-08T06:53:10.065Z,95.20
2022-08-08T06:54:09.756Z,95.26
2022-08-08T06:55:14.078Z,95.33
2022-08-08T06:56:18.505Z,95.33
2022-08-08T06:57:22.914Z,95.40
2022-08-08T06:58:30.365Z,95.38
2022-08-08T06:59:34.494Z,95.38
2022-08-08T07:00:36.101Z,95.18
2022-08-08T07:02:26.423Z,95.34
2022-08-08T07:02:45.087Z,95.18
2022-08-08T07:03:52.214Z,94.85
2022-08-08T07:04:53.846Z,94.30
2022-08-08T07:06:01.720Z,94.05
2022-08-08T07:07:10.524Z,93.58
2022-08-08T07:08:07.007Z,93.59
2022-08-08T07:09:15.236Z,93.37
2022-08-08T07:10:15.854Z,92.43
2022-08-08T07:11:22.682Z,92.64
2022-08-08T07:12:24.625Z,92.81
2022-08-08T07:13:29.042Z,91.66
2022-08-08T07:14:33.524Z,90.76
2022-08-08T07:16:04.599Z,91.39
2022-08-08T07:16:51.160Z,91.62
2022-08-08T07:18:00.867Z,90.66
2022-08-08T07:18:51.341Z,89.50
2022-08-08T07:19:59.757Z,88.65
2022-08-08T07:21:01.871Z,88.03
2022-08-08T07:22:05.341Z,88.67
2022-08-08T07:23:09.059Z,88.63
2022-08-08T07:24:13.559Z,88.23
2022-08-08T07:25:19.375Z,87.34
2022-08-08T07:26:29.007Z,87.24
2022-08-08T07:27:35.004Z,86.42
2022-08-08T07:28:31.776Z,85.32
2022-08-08T07:30:02.137Z,85.93
2022-08-08T07:30:40.061Z,84.35
2022-08-08T07:31:44.520Z,84.08
2022-08-08T07:32:48.978Z,83.40
2022-08-08T07:33:59.217Z,80.63
2022-08-08T07:35:00.108Z,82.19
2022-08-08T07:36:02.200Z,83.72
2022-08-08T07:37:12.078Z,82.69
2022-08-08T07:38:20.430Z,82.73
2022-08-08T07:39:15.558Z,83.56
2022-08-08T07:40:28.722Z,84.45
2022-08-08T07:41:24.848Z,84.96
2022-08-08T07:42:33.052Z,84.71
2022-08-08T07:43:36.895Z,84.74
2022-08-08T07:44:43.531Z,84.34
2022-08-08T07:46:05.780Z,84.30
2022-08-08T07:46:46.434Z,83.59
2022-08-08T07:47:51.594Z,82.94
2022-08-08T07:48:55.361Z,82.71
2022-08-08T07:49:59.804Z,81.54
2022-08-08T07:51:08.912Z,80.38
2022-08-08T07:52:13.393Z,79.82
2022-08-08T07:53:52.433Z,81.41
2022-08-08T07:54:26.776Z,82.44
2022-08-08T07:55:24.037Z,82.87
2022-08-08T07:56:35.498Z,82.71
2022-08-08T07:57:36.408Z,80.54
2022-08-08T07:58:37.341Z,81.53
2022-08-08T07:59:41.796Z,82.09
2022-08-08T08:00:46.356Z,82.40
2022-08-08T08:02:35.201Z,82.36
2022-08-08T08:02:55.018Z,82.00
2022-08-08T08:03:59.491Z,81.89
2022-08-08T08:05:03.954Z,81.96
2022-08-08T08:06:08.443Z,81.93
2022-08-08T08:07:12.834Z,81.81
2022-08-08T08:08:18.940Z,81.27
2022-08-08T08:09:21.660Z,80.73
2022-08-08T08:10:30.497Z,80.83
2022-08-08T08:11:38.074Z,80.95
2022-08-08T08:12:41.290Z,79.37
2022-08-08T08:13:42.482Z,77.70
2022-08-08T08:14:43.805Z,78.20
2022-08-08T08:15:48.315Z,79.38
2022-08-08T08:16:52.744Z,79.25
2022-08-08T08:17:57.445Z,75.76
2022-08-08T08:19:01.578Z,74.69
2022-08-08T08:20:06.044Z,75.10
2022-08-08T08:21:18.543Z,76.36
2022-08-08T08:22:15.243Z,77.64
2022-08-08T08:23:19.315Z,78.79
2022-08-08T08:24:30.356Z,78.78
2022-08-08T08:25:43.196Z,77.14
2022-08-08T08:26:32.648Z,76.21
2022-08-08T08:27:37.081Z,76.50
2022-08-08T08:28:41.541Z,76.69
2022-08-08T08:29:51.984Z,76.85
2022-08-08T08:30:50.349Z,76.41
2022-08-08T08:31:57.831Z,75.90
2022-08-08T08:32:59.387Z,72.79
2022-08-08T08:34:03.656Z,73.02
2022-08-08T08:35:08.091Z,72.92
2022-08-08T08:36:20.374Z,73.73
2022-08-08T08:37:20.249Z,74.38
2022-08-08T08:38:21.419Z,74.96
2022-08-08T08:39:59.839Z,74.70
2022-08-08T08:40:30.306Z,74.96
2022-08-08T08:41:34.717Z,76.21
2022-08-08T08:42:39.158Z,75.36
2022-08-08T08:43:45.128Z,73.50
2022-08-08T08:44:48.029Z,75.45
2022-08-08T08:45:57.126Z,75.43
2022-08-08T08:46:58.659Z,74.92
2022-08-08T08:48:01.440Z,74.91
2022-08-08T08:49:05.779Z,75.82
2022-08-08T08:50:27.877Z,76.41
2022-08-08T08:51:14.605Z,76.08
2022-08-08T08:52:20.573Z,74.78
2022-08-08T08:53:55.361Z,74.61
2022-08-08T08:54:27.943Z,72.99
2022-08-08T08:55:39.265Z,73.00
2022-08-08T08:56:38.947Z,74.08
2022-08-08T08:57:43.397Z,75.32
2022-08-08T08:58:50.409Z,75.81
2022-08-08T08:59:58.989Z,75.79
2022-08-08T09:01:08.793Z,75.86
2022-08-08T09:02:01.195Z,75.99
2022-08-08T09:03:05.595Z,75.25
2022-08-08T09:04:30.263Z,73.42
2022-08-08T09:05:29.083Z,73.70
2022-08-08T09:06:26.504Z,74.74
2022-08-08T09:07:23.635Z,73.44
2022-08-08T09:08:28.009Z,73.78
2022-08-08T09:09:40.335Z,72.85
2022-08-08T09:10:36.950Z,72.06
2022-08-08T09:11:47.582Z,72.42
2022-08-08T09:12:45.894Z,73.61
2022-08-08T09:13:50.315Z,74.09
2022-08-08T09:14:54.794Z,72.99
2022-08-08T09:16:03.518Z,71.11
2022-08-08T09:17:11.669Z,71.78
2022-08-08T09:18:08.757Z,72.77
2022-08-08T09:19:12.729Z,71.42
2022-08-08T09:21:57.825Z,71.77
2022-08-08T09:22:01.475Z,72.33
2022-08-08T09:22:26.856Z,72.71
2022-08-08T09:23:44.518Z,72.31
2022-08-08T09:24:47.798Z,72.47
2022-08-08T09:25:55.003Z,73.23
2022-08-08T09:26:56.615Z,72.14
2022-08-08T09:28:01.461Z,71.69
2022-08-08T09:29:08.391Z,72.65
2022-08-08T09:30:10.053Z,71.79
2022-08-08T09:31:14.576Z,71.22
2022-08-08T09:32:19.483Z,71.50
2022-08-08T09:34:06.140Z,70.08
2022-08-08T09:34:34.282Z,71.05
2022-08-08T09:35:37.276Z,71.66
2022-08-08T09:36:37.863Z,72.76
2022-08-08T09:38:01.992Z,73.25
2022-08-08T09:38:52.419Z,73.54
2022-08-08T09:39:50.208Z,72.31
2022-08-08T09:40:58.095Z,69.40
2022-08-08T09:42:20.552Z,68.65
2022-08-08T09:43:06.831Z,68.91
2022-08-08T09:44:15.204Z,70.65
2022-08-08T09:45:20.598Z,70.89
2022-08-08T09:46:25.767Z,71.16
2022-08-08T09:48:04.625Z,71.87
2022-08-08T09:48:32.427Z,71.94
2022-08-08T09:49:42.306Z,70.82
2022-08-08T09:50:34.924Z,70.66
2022-08-08T09:52:01.883Z,69.57
2022-08-08T09:52:54.098Z,71.17
2022-08-08T09:53:59.869Z,71.14
2022-08-08T09:54:52.575Z,70.62
2022-08-08T09:56:06.116Z,70.58
2022-08-08T09:57:01.501Z,70.85
2022-08-08T09:58:06.001Z,70.69
2022-08-08T09:59:39.457Z,70.59
2022-08-08T10:00:34.527Z,71.12
2022-08-08T10:02:02.149Z,71.52
2022-08-08T10:02:23.744Z,71.40
2022-08-08T10:03:28.210Z,71.08
2022-08-08T10:04:41.799Z,71.24
2022-08-08T10:05:37.267Z,71.89
2022-08-08T10:06:41.569Z,71.49
2022-08-08T10:07:46.096Z,71.41
2022-08-08T10:08:50.534Z,71.58
2022-08-08T10:09:59.713Z,71.72
2022-08-08T10:10:59.574Z,71.76
2022-08-08T10:12:26.623Z,71.67
2022-08-08T10:13:14.539Z,72.25
2022-08-08T10:14:28.606Z,72.78
2022-08-08T10:15:18.747Z,72.80
2022-08-08T10:16:21.649Z,71.56
2022-08-08T10:18:06.519Z,70.13
2022-08-08T10:18:30.701Z,71.50
2022-08-08T10:19:46.120Z,71.25
2022-08-08T10:20:41.475Z,71.20
2022-08-08T10:21:50.218Z,72.12
2022-08-08T10:22:54.610Z,70.64
2022-08-08T10:23:58.063Z,71.15
2022-08-08T10:24:57.305Z,71.57
2022-08-08T10:26:01.856Z,71.94
2022-08-08T10:27:06.344Z,71.65
2022-08-08T10:28:15.213Z,71.35
2022-08-08T10:29:21.122Z,70.32
2022-08-08T10:30:57.403Z,70.14
2022-08-08T10:31:46.489Z,68.67
2022-08-08T10:32:28.558Z,69.53
2022-08-08T10:33:38.312Z,70.35
2022-08-08T10:34:37.465Z,70.67
2022-08-08T10:36:08.598Z,71.20
2022-08-08T10:36:46.446Z,70.51
2022-08-08T10:37:50.778Z,69.52
2022-08-08T10:38:55.298Z,68.88
2022-08-08T10:39:59.786Z,69.76
2022-08-08T10:41:04.178Z,68.94
2022-08-08T10:42:15.423Z,69.19
2022-08-08T10:43:13.143Z,69.05
2022-08-08T10:44:17.610Z,69.00
2022-08-08T10:45:22.037Z,68.75
2022-08-08T10:46:29.581Z,69.08
2022-08-08T10:47:43.698Z,69.27
2022-08-08T10:48:57.689Z,69.78
2022-08-08T10:50:02.045Z,70.00
2022-08-08T10:50:44.372Z,70.25
2022-08-08T10:51:51.440Z,70.42
2022-08-08T10:52:53.329Z,70.62
2022-08-08T10:53:59.824Z,70.51
2022-08-08T10:55:05.140Z,70.60
2022-08-08T10:56:06.677Z,70.41
2022-08-08T10:57:11.131Z,70.67
2022-08-08T10:58:15.999Z,69.92
2022-08-08T10:59:20.104Z,70.29
2022-08-08T11:00:25.501Z,69.90
2022-08-08T11:01:29.238Z,70.28
2022-08-08T11:02:34.064Z,70.24
2022-08-08T11:04:00.487Z,70.35
2022-08-08T11:04:42.556Z,70.62
2022-08-08T11:05:47.059Z,70.33
2022-08-08T11:06:54.546Z,69.38
2022-08-08T11:08:31.441Z,68.50
2022-08-08T11:09:02.630Z,67.77
2022-08-08T11:10:07.109Z,68.86
2022-08-08T11:12:00.013Z,68.96
2022-08-08T11:12:16.117Z,67.88
2022-08-08T11:13:30.053Z,68.43
2022-08-08T11:14:27.777Z,67.79
2022-08-08T11:15:30.571Z,67.57
2022-08-08T11:16:34.585Z,67.26
2022-08-08T11:18:00.052Z,68.46
2022-08-08T11:18:42.878Z,68.30
2022-08-08T11:19:52.793Z,68.83
2022-08-08T11:20:52.146Z,68.72
2022-08-08T11:21:56.490Z,68.92
2022-08-08T11:23:00.739Z,68.48
2022-08-08T11:24:05.417Z,68.23
2022-08-08T11:25:13.721Z,67.23
2022-08-08T11:26:18.639Z,67.17
2022-08-08T11:27:19.658Z,67.01
2022-08-08T11:28:23.005Z,68.10
2022-08-08T11:29:41.476Z,68.41
2022-08-08T11:30:32.046Z,68.68
2022-08-08T11:31:48.185Z,67.85
2022-08-08T11:32:47.597Z,68.63
2022-08-08T11:33:53.117Z,68.98
2022-08-08T11:35:08.955Z,68.42
2022-08-08T11:35:56.358Z,68.69
2022-08-08T11:37:00.835Z,68.64
2022-08-08T11:38:36.289Z,68.69
2022-08-08T11:39:10.854Z,68.64
2022-08-08T11:40:14.229Z,68.73
2022-08-08T11:41:18.655Z,69.06
2022-08-08T11:42:26.917Z,69.04
2022-08-08T11:43:38.803Z,68.61
2022-08-08T11:44:32.115Z,68.86
2022-08-08T11:45:59.804Z,68.89
2022-08-08T11:46:41.022Z,68.92
2022-08-08T11:48:02.526Z,69.03
2022-08-08T11:48:49.919Z,68.86
2022-08-08T11:49:54.364Z,68.11
2022-08-08T11:50:58.843Z,68.77
2022-08-08T11:52:03.465Z,68.73
2022-08-08T11:53:07.716Z,69.05
2022-08-08T11:54:31.986Z,69.11
2022-08-08T11:55:16.518Z,69.02
2022-08-08T11:56:24.048Z,69.11
2022-08-08T11:57:30.275Z,68.69
2022-08-08T11:58:32.028Z,68.63
2022-08-08T11:59:57.782Z,68.02
2022-08-08T12:00:40.899Z,68.18
2022-08-08T12:01:45.348Z,68.77
2022-08-08T12:02:51.418Z,69.16
2022-08-08T12:03:58.914Z,69.10
2022-08-08T12:04:58.684Z,68.78
2022-08-08T12:06:03.137Z,68.16
2022-08-08T12:07:08.094Z,68.81
2022-08-08T12:08:12.023Z,68.49
2022-08-08T12:09:17.416Z,68.84
2022-08-08T12:10:20.888Z,69.16
2022-08-08T12:11:28.592Z,68.26
2022-08-08T12:12:30.090Z,67.50
2022-08-08T12:14:02.331Z,67.55
2022-08-08T12:14:38.770Z,67.87
2022-08-08T12:15:47.306Z,67.83
2022-08-08T12:16:48.963Z,68.65
2022-08-08T12:17:52.178Z,68.98
2022-08-08T12:18:56.621Z,69.31
2022-08-08T12:20:01.091Z,69.28
2022-08-08T12:21:05.551Z,69.35
2022-08-08T12:22:12.741Z,69.65
2022-08-08T12:23:30.162Z,69.32
2022-08-08T12:24:19.029Z,68.19
2022-08-08T12:25:29.889Z,67.61
2022-08-08T12:26:35.838Z,67.54
2022-08-08T12:27:43.384Z,68.00
2022-08-08T12:28:36.922Z,67.33
2022-08-08T12:29:45.057Z,67.57
2022-08-08T12:30:48.202Z,67.70
2022-08-08T12:31:53.203Z,67.92
2022-08-08T12:32:54.844Z,68.05
2022-08-08T12:34:02.670Z,68.35
2022-08-08T12:35:04.733Z,68.89
2022-08-08T12:36:08.258Z,69.08
2022-08-08T12:37:12.727Z,69.40
2022-08-08T12:38:18.765Z,68.75
2022-08-08T12:39:21.729Z,68.62
2022-08-08T12:40:26.202Z,68.50
2022-08-08T12:41:35.114Z,69.08
2022-08-08T12:42:35.119Z,69.01
2022-08-08T12:43:47.863Z,69.15
2022-08-08T12:44:43.990Z,69.07
2022-08-08T12:45:57.922Z,69.33
2022-08-08T12:46:57.345Z,69.29
2022-08-08T12:48:04.693Z,69.02
2022-08-08T12:50:06.329Z,69.08
2022-08-08T12:51:11.834Z,68.90
2022-08-08T12:52:28.698Z,68.76
2022-08-08T12:53:19.841Z,68.64
2022-08-08T12:54:25.254Z,68.60
2022-08-08T12:55:35.689Z,68.36
2022-08-08T12:56:33.289Z,67.35
2022-08-08T12:57:38.334Z,68.01
2022-08-08T12:58:42.255Z,67.75
2022-08-08T13:00:03.436Z,67.21
2022-08-08T13:00:51.730Z,67.14
2022-08-08T13:01:55.668Z,67.17
2022-08-08T13:03:00.765Z,67.59
2022-08-08T13:04:04.591Z,68.04
2022-08-08T13:05:25.836Z,68.02
2022-08-08T13:06:14.523Z,67.56
2022-08-08T13:07:17.985Z,66.86
2022-08-08T13:08:22.423Z,67.55
2022-08-08T13:09:26.923Z,67.62
2022-08-08T13:10:31.370Z,67.52
2022-08-08T13:12:24.516Z,67.69
2022-08-08T13:12:46.640Z,68.09
2022-08-08T13:13:44.770Z,68.45
2022-08-08T13:14:52.539Z,68.78
2022-08-08T13:15:54.759Z,69.12
2022-08-08T13:16:59.317Z,68.72
2022-08-08T13:18:11.028Z,68.60
2022-08-08T13:19:12.317Z,68.82
2022-08-08T13:20:11.725Z,68.58
2022-08-08T13:21:16.333Z,68.84
2022-08-08T13:22:27.354Z,68.65
2022-08-08T13:23:36.625Z,68.54
2022-08-08T13:24:40.796Z,68.97
2022-08-08T13:25:34.125Z,69.51
2022-08-08T13:26:38.626Z,69.55
2022-08-08T13:27:43.068Z,69.42
2022-08-08T13:28:48.980Z,69.15
2022-08-08T13:29:52.765Z,68.79
2022-08-08T13:30:56.442Z,68.33
2022-08-08T13:32:00.919Z,68.42
2022-08-08T13:33:05.591Z,68.56
2022-08-08T13:34:11.853Z,68.65
2022-08-08T13:35:25.134Z,69.10
2022-08-08T13:36:26.334Z,69.18
2022-08-08T13:37:52.062Z,69.56
2022-08-08T13:38:28.318Z,68.72
2022-08-08T13:39:32.516Z,68.05
2022-08-08T13:40:41.121Z,68.02
2022-08-08T13:41:52.791Z,68.24
2022-08-08T13:42:45.919Z,68.11
2022-08-08T13:43:51.049Z,68.33
2022-08-08T13:44:54.864Z,68.21